Flight Track Log - Related Links

Times and Time Zones

All times are in EDT time to prevent confusion due to time zone crossing. See the TCF7325 flight status page for this flight to view local times or setup timezone preferences in your user account.

Time Position Orientation Groundspeed Altitude Reporting Facility
EDT Latitude Longitude Course Direction KTS MPH feet Rate Location/Type
Thu 12:21:26 PM 38.8833 -77.0667 270° West 173 199 1,800  Level Potomac TRACON
Thu 12:22:26 PM 38.9333 -77.1167 322° Northwest 237 273 4,400 2,898 Climbing Potomac TRACON
Thu 12:23:53 PM 38.9986 -77.1942 317° Northwest 283 326 8,900 3,021 Climbing Washington Center
Thu 12:24:00 PM 38.9333 -77.5057 270° West  Level FlightAware Approximate
Thu 12:24:51 PM 39.0017 -77.2825 273° West 260 299 11,700  Level Washington Center
Thu 12:25:00 PM 38.9333 -77.6323 270° West  Level FlightAware Approximate
Thu 12:25:52 PM 38.9647 -77.3803 244° Southwest 253 291 14,700  Level Washington Center
Thu 12:26:00 PM 38.9333 -77.7589 270° West  Level FlightAware Approximate
Thu 12:26:51 PM 38.9339 -77.4808 249° West 284 327 16,800  Level Washington Center
Thu 12:27:52 PM 38.9403 -77.6067 274° West 311 358 17,400 1,279 Climbing Washington Center
Thu 12:28:53 PM 38.9444 -77.7242 273° West 331 381 19,400 2,118 Climbing Washington Center
Thu 12:29:51 PM 38.9486 -77.8444 273° West 331 381 21,600 2,186 Climbing Washington Center
Thu 12:30:51 PM 38.9525 -77.9700 272° West 349 402 23,700 1,967 Climbing Washington Center
Thu 12:31:53 PM 38.9561 -78.0981 272° West 355 409 25,600 1,750 Climbing Washington Center
Thu 12:32:51 PM 38.9594 -78.2317 272° West 368 423 27,200 1,576 Climbing Washington Center
Thu 12:33:51 PM 38.9689 -78.3683 275° West 379 436 28,700 1,339 Climbing Washington Center
Thu 12:34:52 PM 38.9781 -78.5075 275° West 390 449 29,900 1,279 Climbing Washington Center
Thu 12:35:53 PM 38.9872 -78.6494 275° West 390 449 31,300 1,289 Climbing Washington Center
Thu 12:36:53 PM 38.9961 -78.7886 275° West 395 455 32,500 1,169 Climbing Washington Center
Thu 12:37:51 PM 39.0047 -78.9306 275° West 401 461 33,600 1,220 Climbing Washington Center
Thu 12:38:51 PM 39.0111 -79.0672 273° West 401 461 34,900 1,140 Climbing Washington Center
Thu 12:39:52 PM 39.0197 -79.2067 275° West 401 461 35,900 541 Climbing Washington Center
Thu 12:40:53 PM 39.0300 -79.3461 275° West 401 461 36,000 50 Climbing Washington Center
Thu 12:41:51 PM 39.0403 -79.4803 276° West 389 448 36,000  Level Washington Center
Thu 12:42:52 PM 39.0525 -79.6172 277° West 389 448 36,000  Level Washington Center
Thu 12:43:53 PM 39.0603 -79.7567 274° West 389 448 36,000  Level Washington Center
Thu 12:44:53 PM 39.0678 -79.8933 274° West 389 448 36,000  Level Washington Center
Thu 12:46:58 PM 39.0806 -80.1717 273° West 385 443 36,000  Level Indianapolis Center
Thu 12:48:00 PM 39.0886 -80.3081 274° West 385 443 36,000  Level Indianapolis Center
Thu 12:49:02 PM 39.0958 -80.4447 274° West 384 442 36,000  Level Indianapolis Center
Thu 12:50:04 PM 39.1039 -80.5794 274° West 384 442 36,000  Level Indianapolis Center
Thu 12:51:06 PM 39.1594 -80.7319 295° West 395 455 36,000  Level Indianapolis Center
Thu 12:52:08 PM 39.2136 -80.8567 299° West 396 456 36,000  Level Indianapolis Center
Thu 12:53:10 PM 39.2678 -80.9806 299° West 397 457 36,000  Level Indianapolis Center
Thu 12:54:12 PM 39.3231 -81.1044 300° West 397 457 36,000  Level Indianapolis Center
Thu 12:55:15 PM 39.3756 -81.2303 298° West 398 458 36,000  Level Indianapolis Center
Thu 12:56:17 PM 39.4394 -81.3786 299° West 397 457 36,000  Level Indianapolis Center
Thu 12:57:19 PM 39.4928 -81.5022 299° West 397 457 36,000  Level Indianapolis Center
Thu 12:58:21 PM 39.5461 -81.6275 299° West 397 457 36,000  Level Indianapolis Center
Thu 12:59:23 PM 39.6000 -81.7531 299° West 397 457 36,000  Level Indianapolis Center
Thu 01:00:25 PM 39.6522 -81.8750 299° West 392 451 36,000  Level Indianapolis Center
Thu 01:01:27 PM 39.7117 -82.0147 299° West 392 451 36,000  Level Indianapolis Center
Thu 01:02:29 PM 39.7639 -82.1392 299° West 392 451 36,000  Level Indianapolis Center
Thu 01:03:31 PM 39.8150 -82.2642 298° West 393 452 36,000  Level Indianapolis Center
Thu 01:04:33 PM 39.8669 -82.3881 299° West 393 452 36,000  Level Indianapolis Center
Thu 01:05:36 PM 39.9275 -82.5356 298° West 390 449 36,000  Level Indianapolis Center
Thu 01:06:38 PM 39.9794 -82.6567 299° West 386 444 36,000  Level Indianapolis Center
Thu 01:07:40 PM 40.0300 -82.7797 298° West 386 444 36,000  Level Indianapolis Center
Thu 01:08:42 PM 40.0792 -82.9019 298° West 386 444 36,000  Level Indianapolis Center
Thu 01:09:44 PM 40.1278 -83.0222 298° West 382 440 36,000  Level Indianapolis Center
Thu 01:10:46 PM 40.1869 -83.1681 298° West 382 440 36,000  Level Indianapolis Center
Thu 01:11:48 PM 40.2369 -83.2894 298° West 382 440 36,000  Level Indianapolis Center
Thu 01:12:50 PM 40.2656 -83.4183 286° West 380 437 36,000  Level Indianapolis Center
Thu 01:13:52 PM 40.2803 -83.5511 278° West 376 433 36,000  Level Indianapolis Center
Thu 01:14:54 PM 40.2928 -83.6847 277° West 372 428 36,000  Level Indianapolis Center
Thu 01:15:57 PM 40.3078 -83.8431 277° West 372 428 36,000  Level Indianapolis Center
Thu 01:16:59 PM 40.3192 -83.9736 277° West 367 422 36,000  Level Indianapolis Center
Thu 01:18:01 PM 40.3283 -84.1053 275° West 365 420 36,000  Level Indianapolis Center
Thu 01:19:03 PM 40.3361 -84.2383 274° West 365 420 36,000  Level Indianapolis Center
Thu 01:20:05 PM 40.3467 -84.3689 276° West 365 420 36,000  Level Indianapolis Center
Thu 01:21:07 PM 40.3564 -84.5272 275° West 365 420 36,000  Level Indianapolis Center
Thu 01:22:09 PM 40.3656 -84.6592 275° West 365 420 36,000  Level Indianapolis Center
Thu 01:23:11 PM 40.3725 -84.7914 274° West 365 420 36,000  Level Indianapolis Center
Thu 01:24:13 PM 40.3817 -84.9317 275° West 365 420 36,000  Level Indianapolis Center
Thu 01:25:16 PM 40.3914 -85.0642 276° West 365 420 36,000  Level Indianapolis Center
Thu 01:26:18 PM 40.3989 -85.1953 274° West 364 419 36,000  Level Indianapolis Center
Thu 01:27:20 PM 40.4075 -85.3267 275° West 364 419 36,000  Level Indianapolis Center
Thu 01:28:22 PM 40.4161 -85.4844 274° West 364 419 36,000  Level Indianapolis Center
Thu 01:29:24 PM 40.4233 -85.6150 274° West 364 419 36,000  Level Indianapolis Center
Thu 01:30:26 PM 40.4308 -85.7464 274° West 364 419 36,000  Level Indianapolis Center
Thu 01:31:28 PM 40.4381 -85.8778 274° West 363 418 36,000  Level Indianapolis Center
Thu 01:32:30 PM 40.4453 -86.0083 274° West 363 418 36,000  Level Indianapolis Center
Thu 01:33:32 PM 40.4525 -86.1375 274° West 362 417 36,000  Level Indianapolis Center
Thu 01:34:35 PM 40.4594 -86.2917 273° West 360 414 36,000  Level Indianapolis Center
Thu 01:35:37 PM 40.4667 -86.4203 274° West 358 412 36,000  Level Indianapolis Center
Thu 01:36:39 PM 40.4722 -86.5469 273° West 356 410 36,000  Level Indianapolis Center
Thu 01:37:41 PM 40.4789 -86.6739 274° West 354 407 36,000  Level Indianapolis Center
Thu 01:38:43 PM 40.4850 -86.8017 274° West 353 406 36,000  Level Indianapolis Center
Thu 01:39:45 PM 40.4914 -86.9522 273° West 352 405 36,000  Level Indianapolis Center
Thu 01:40:47 PM 40.4978 -87.0775 274° West 350 403 36,000  Level Indianapolis Center
Thu 01:41:49 PM 40.5031 -87.2019 273° West 348 400 36,000  Level Indianapolis Center
Thu 01:42:51 PM 40.5075 -87.3278 273° West 347 399 36,000  Level Indianapolis Center
Thu 01:43:53 PM 40.5128 -87.4544 273° West 347 399 36,000  Level Indianapolis Center
Thu 01:45:20 PM 40.5219 -87.6475 274° West 347 399 36,000  Level Chicago Center
Thu 01:46:22 PM 40.5267 -87.7744 273° West 347 399 36,000  Level Chicago Center
Thu 01:47:24 PM 40.5319 -87.9011 273° West 347 399 36,000  Level Chicago Center
Thu 01:48:26 PM 40.5369 -88.0528 273° West 347 399 36,000  Level Chicago Center
Thu 01:49:28 PM 40.5417 -88.1797 273° West 347 399 36,000  Level Chicago Center
Thu 01:50:31 PM 40.5461 -88.3053 273° West 345 397 36,000  Level Chicago Center
Thu 01:51:33 PM 40.5506 -88.4325 273° West 345 397 36,000  Level Chicago Center
Thu 01:52:35 PM 40.5544 -88.5583 272° West 345 397 36,000  Level Chicago Center
Thu 01:53:37 PM 40.5592 -88.6836 273° West 345 397 36,000  Level Chicago Center
Thu 01:54:39 PM 40.5633 -88.8111 273° West 346 398 36,000  Level Chicago Center
Thu 01:55:41 PM 40.5664 -88.9467 272° West 345 397 36,000  Level Chicago Center
Thu 01:56:43 PM 40.5703 -89.0725 272° West 345 397 36,000  Level Chicago Center
Thu 01:57:45 PM 40.5731 -89.1969 272° West 344 396 36,000  Level Chicago Center
Thu 01:58:47 PM 40.5761 -89.3489 272° West 345 397 36,000  Level Chicago Center
Thu 01:59:49 PM 40.5783 -89.4736 271° West 343 395 36,000  Level Chicago Center
Thu 02:00:51 PM 40.5819 -89.5872 272° West 342 394 36,000  Level Chicago Center
Thu 02:01:53 PM 40.5842 -89.7361 271° West 339 390 36,000  Level Chicago Center
Thu 02:02:55 PM 40.5883 -89.8606 273° West 339 390 36,000  Level Chicago Center
Thu 02:03:57 PM 40.5900 -89.9825 271° West 338 389 36,000  Level Chicago Center
Thu 02:04:59 PM 40.5919 -90.1056 271° West 338 389 36,000  Level Chicago Center
Thu 02:06:01 PM 40.5942 -90.2289 271° West 338 389 36,000  Level Chicago Center
Thu 02:07:03 PM 40.5958 -90.3500 271° West 341 392 36,000  Level Chicago Center
Thu 02:08:05 PM 40.5975 -90.4967 271° West 339 390 36,000  Level Chicago Center
Thu 02:09:06 PM 40.5997 -90.6208 271° West 339 390 36,000  Level Chicago Center
Thu 02:10:08 PM 40.6003 -90.7450 270° West 342 394 36,000  Level Chicago Center
Thu 02:10:45 PM 40.6019 -90.8197 272° West 341 392 36,000  Level Chicago Center
Thu 02:11:40 PM 40.6022 -90.9206 270° West 339 390 36,000  Level Kansas City Center
Thu 02:12:42 PM 40.6044 -91.0669 271° West 338 389 36,000  Level Kansas City Center
Thu 02:13:44 PM 40.6053 -91.1908 271° West 338 389 36,000  Level Kansas City Center
Thu 02:14:46 PM 40.6067 -91.3067 271° West 337 388 36,000  Level Kansas City Center
Thu 02:15:55 PM 40.6072 -91.4533 270° West 337 388 36,000  Level Chicago Center
Thu 02:16:57 PM 40.6072 -91.5758 270° West 337 388 36,000  Level Chicago Center
Thu 02:17:59 PM 40.6094 -91.6997 271° West 340 391 36,000  Level Chicago Center
Thu 02:19:01 PM 40.6083 -91.8439 269° West 336 387 36,000  Level Chicago Center
Thu 02:19:56 PM 40.6103 -91.9431 272° West 337 388 36,000  Level Kansas City Center
Thu 02:20:58 PM 40.6103 -92.0644 270° West 337 388 36,000  Level Kansas City Center
Thu 02:22:07 PM 40.6100 -92.2094 270° West 335 386 36,000  Level Chicago Center
Thu 02:23:09 PM 40.6092 -92.3322 270° West 337 388 36,000 -919 Level Chicago Center
Thu 02:24:11 PM 40.6097 -92.4808 270° West 341 392 34,100 -968 Descending Chicago Center
Thu 02:25:13 PM 40.6094 -92.6011 270° West 336 387 34,000 -51 Descending Chicago Center
Thu 02:26:09 PM 40.6089 -92.7225 270° West 337 388 34,000  Level Kansas City Center
Thu 02:28:07 PM 40.6072 -92.9675 270° West 337 388 34,000  Level Minneapolis Center
Thu 02:29:22 PM 40.6067 -93.1106 270° West 336 387 34,000  Level Chicago Center
Thu 02:30:24 PM 40.6058 -93.2306 270° West 335 386 34,000  Level Chicago Center
Thu 02:31:19 PM 40.6036 -93.3531 269° West 335 386 34,000  Level Kansas City Center
Thu 02:32:21 PM 40.6017 -93.4731 269° West 334 384 34,000  Level Kansas City Center
Thu 02:33:23 PM 40.6011 -93.5950 270° West 334 384 34,000  Level Kansas City Center
Thu 02:34:25 PM 40.5983 -93.7161 268° West 334 384 34,000  Level Kansas City Center
Thu 02:35:21 PM 40.5975 -93.8381 270° West 335 386 34,000 -661 Level Minneapolis Center
Thu 02:36:23 PM 40.5964 -93.9617 269° West 337 388 32,700 -1,548 Descending Minneapolis Center
Thu 02:37:25 PM 40.6139 -94.0889 280° West 351 404 30,800 -2,032 Descending Minneapolis Center
Thu 02:38:27 PM 40.6406 -94.2394 283° West 357 411 28,500 -1,984 Descending Minneapolis Center
Thu 02:39:29 PM 40.6617 -94.3625 283° West 350 403 26,700 -1,742 Descending Minneapolis Center
Thu 02:40:31 PM 40.6817 -94.4833 282° West 345 397 24,900 -1,645 Descending Minneapolis Center
Thu 02:41:33 PM 40.6992 -94.5956 282° West 340 391 23,300 -1,790 Descending Minneapolis Center
Thu 02:42:35 PM 40.7217 -94.7364 282° West 331 381 21,200 -1,839 Descending Minneapolis Center
Thu 02:43:37 PM 40.7414 -94.8525 283° West 330 380 19,500 -1,648 Descending Minneapolis Center
Thu 02:44:06 PM 40.7642 -94.8983 303° West 320 368 18,700 -1,645 Descending Minneapolis Center
Thu 02:44:39 PM 40.7603 -94.9658 266° West 322 371 17,800 -1,500 Descending Minneapolis Center
Thu 02:45:06 PM 40.7789 -95.0122 298° West 318 366 17,200 -1,645 Descending Minneapolis Center
Thu 02:45:41 PM 40.7781 -95.0797 269° West 321 369 16,100 -2,149 Descending Minneapolis Center
Thu 02:46:13 PM 40.8214 -95.1336 317° Northwest 319 367 14,800 -2,129 Descending Minneapolis Center
Thu 02:46:43 PM 40.8300 -95.1736 286° West 318 366 13,900 -2,400 Descending Minneapolis Center
Thu 02:47:08 PM 40.8694 -95.2158 321° Northwest 311 358 12,600 -2,419 Descending Minneapolis Center
Thu 02:47:45 PM 40.8842 -95.2608 293° West 311 358 11,400 -1,881 Descending Minneapolis Center
Thu 02:48:15 PM 40.9244 -95.3108 317° Northwest 303 349 10,500 -1,839 Descending Minneapolis Center
Thu 02:48:47 PM 40.9453 -95.3633 298° West 305 351 9,500 -1,770 Descending Minneapolis Center
Thu 02:49:16 PM 40.9719 -95.3933 320° Northwest 280 322 8,700 -1,742 Descending Minneapolis Center
Thu 02:49:49 PM 40.9925 -95.4422 299° West 289 333 7,700 -1,900 Descending Minneapolis Center
Thu 02:50:16 PM 41.0200 -95.4786 315° West 267 307 6,800 -1,645 Descending Minneapolis Center
Thu 02:50:51 PM 41.0369 -95.5181 300° West 275 316 6,000 -1,964 Descending Minneapolis Center
Thu 02:51:11 PM 41.0603 -95.5483 316° Northwest 262 302 5,000 -2,032 Descending Minneapolis Center
Thu 02:51:53 PM 41.0833 -95.5944 304° West 269 310 3,900 -1,574 Descending Minneapolis Center
Thu 02:52:12 PM 41.1075 -95.6258 316° Northwest 263 303 3,400 -871 Descending Minneapolis Center
Thu 02:52:55 PM 41.1292 -95.6672 305° West 266 306 3,000 -393 Descending Minneapolis Center
Thu 02:53:13 PM 41.1500 -95.6956 314° West 248 285 3,000  Level Minneapolis Center
Thu 02:53:57 PM 41.1725 -95.7361 306° West 256 295 3,000 100 Level Minneapolis Center
Thu 02:54:13 PM 41.1878 -95.7603 310° West 199 229 3,100  Climbing Minneapolis Center
Thu 02:54:59 PM 41.2067 -95.7917 309° West 225 259 3,000 -197 Descending Minneapolis Center
Thu 02:55:14 PM 41.2186 -95.8119 308° West 174 200 2,900 -774 Descending Minneapolis Center
Thu 02:56:01 PM 41.2467 -95.8369 326° Northwest 180 207 2,200 -806 Descending Minneapolis Center
Thu 02:56:21 PM 41.2567 -95.8492 317° Northwest 129 148 2,000 -581 Descending Minneapolis Center
Thu 02:57:03 PM 41.2744 -95.8636 329° Northwest 147 169 1,600 -590 Descending Minneapolis Center
Thu 02:57:22 PM 41.2836 -95.8764 314° West 118 136 1,400 -581 Descending Minneapolis Center
Thu 02:58:05 PM 41.3017 -95.8889 333° Northwest 131 151 1,000 -558 Descending Minneapolis Center

Login

Don't have an account? Register now (free) for customized features, flight alerts, and more!